createdAt,value
2022-12-06T00:00:32.360Z,29.70
2022-12-06T00:05:46.650Z,29.30
2022-12-06T00:10:52.472Z,30.40
2022-12-06T00:16:02.629Z,29.80
2022-12-06T00:21:10.414Z,31.40
2022-12-06T00:26:16.796Z,31.90
2022-12-06T00:31:25.003Z,30.70
2022-12-06T00:36:32.529Z,29.30
2022-12-06T00:41:38.800Z,33.00
2022-12-06T00:46:44.544Z,34.90
2022-12-06T00:51:50.333Z,31.50
2022-12-06T00:56:56.123Z,32.50
2022-12-06T01:02:01.933Z,32.60
2022-12-06T01:07:07.591Z,33.80
2022-12-06T01:12:13.320Z,30.30
2022-12-06T01:17:19.208Z,31.40
2022-12-06T01:22:25.680Z,32.00
2022-12-06T01:27:31.394Z,33.00
2022-12-06T01:32:36.994Z,30.70
2022-12-06T01:37:42.901Z,32.00
2022-12-06T01:42:48.681Z,33.20
2022-12-06T01:47:54.351Z,35.30
2022-12-06T01:53:03.950Z,36.40
2022-12-06T01:58:13.462Z,33.50
2022-12-06T02:03:23.880Z,34.10
2022-12-06T02:08:30.344Z,34.50
2022-12-06T02:13:37.392Z,37.60
2022-12-06T02:18:50.903Z,35.50
2022-12-06T02:24:36.001Z,34.90
2022-12-06T02:30:09.501Z,34.90
2022-12-06T02:35:25.068Z,36.70
2022-12-06T02:40:36.693Z,32.20
2022-12-06T02:52:41.798Z,35.10
2022-12-06T02:57:51.226Z,32.60
2022-12-06T03:03:06.853Z,31.50
2022-12-06T03:08:22.015Z,32.70
2022-12-06T03:13:34.410Z,33.90
2022-12-06T03:18:47.818Z,30.80
2022-12-06T03:23:55.191Z,30.40
2022-12-06T03:29:03.785Z,31.80
2022-12-06T03:34:15.123Z,33.40
2022-12-06T03:39:28.228Z,30.70
2022-12-06T03:44:35.517Z,30.90
2022-12-06T03:49:46.598Z,30.80
2022-12-06T03:59:56.978Z,31.80
2022-12-06T04:05:03.023Z,31.00
2022-12-06T04:10:09.933Z,29.80
2022-12-06T04:15:16.537Z,32.60
2022-12-06T04:20:22.300Z,31.70
2022-12-06T04:25:28.233Z,29.60
2022-12-06T04:30:53.066Z,28.90
2022-12-06T04:36:17.686Z,30.70
2022-12-06T04:41:42.553Z,30.90
2022-12-06T04:46:48.423Z,29.90
2022-12-06T04:51:54.488Z,29.50
2022-12-06T04:57:01.292Z,29.70
2022-12-06T05:02:08.061Z,31.50
2022-12-06T05:07:14.067Z,30.20
2022-12-06T05:12:20.061Z,29.10
2022-12-06T05:17:25.705Z,30.10
2022-12-06T05:22:35.108Z,31.50
2022-12-06T05:27:41.978Z,28.80
2022-12-06T05:32:50.282Z,28.50
2022-12-06T05:37:58.432Z,29.00
2022-12-06T05:43:04.185Z,37.00
2022-12-06T05:48:10.327Z,41.50
2022-12-06T05:53:17.612Z,28.80
2022-12-06T05:58:23.413Z,27.70
2022-12-06T06:03:29.424Z,35.50
2022-12-06T06:08:35.127Z,36.80
2022-12-06T06:13:41.160Z,40.00
2022-12-06T06:18:47.001Z,35.90
2022-12-06T06:23:52.777Z,29.00
2022-12-06T06:28:58.569Z,39.00
2022-12-06T06:34:04.205Z,38.10
2022-12-06T06:39:10.065Z,31.00
2022-12-06T06:44:42.341Z,28.10
2022-12-06T06:49:48.162Z,32.00
2022-12-06T06:54:54.034Z,34.90
2022-12-06T07:00:00.117Z,30.70
2022-12-06T07:05:07.282Z,30.30
2022-12-06T07:10:13.964Z,27.00
2022-12-06T07:15:19.845Z,32.20
2022-12-06T07:20:25.731Z,34.50
2022-12-06T07:25:32.478Z,34.40
2022-12-06T07:30:38.211Z,29.80
2022-12-06T07:36:11.388Z,33.20
2022-12-06T07:41:31.236Z,34.30
2022-12-06T07:46:37.719Z,28.30
2022-12-06T07:51:44.206Z,30.90
2022-12-06T07:56:49.975Z,33.80
2022-12-06T08:01:55.853Z,34.00
2022-12-06T08:07:01.672Z,33.00
2022-12-06T08:12:08.927Z,29.90
2022-12-06T08:17:15.328Z,28.50
2022-12-06T08:22:21.031Z,29.50
2022-12-06T08:27:26.698Z,28.80
2022-12-06T08:32:32.328Z,30.40
2022-12-06T08:37:38.084Z,30.00
2022-12-06T08:42:45.938Z,35.60
2022-12-06T08:47:51.536Z,34.90
2022-12-06T08:52:57.409Z,36.60
2022-12-06T08:58:03.073Z,38.10
2022-12-06T09:03:08.737Z,34.80
2022-12-06T09:08:14.560Z,33.00
2022-12-06T09:13:20.481Z,34.10
2022-12-06T09:18:26.425Z,39.10
2022-12-06T09:23:32.104Z,35.10
2022-12-06T09:28:39.620Z,36.40
2022-12-06T09:33:46.285Z,33.00
2022-12-06T09:38:56.853Z,39.80
2022-12-06T09:44:20.477Z,38.00
2022-12-06T09:49:42.935Z,36.40
2022-12-06T09:55:03.364Z,35.30
2022-12-06T10:00:19.044Z,33.10
2022-12-06T10:05:42.210Z,39.30
2022-12-06T10:10:57.482Z,41.80
2022-12-06T10:16:12.418Z,38.50
2022-12-06T10:21:26.251Z,33.10
2022-12-06T10:26:39.889Z,37.00
2022-12-06T10:31:56.886Z,37.10
2022-12-06T10:37:10.066Z,36.20
2022-12-06T10:42:24.297Z,38.90
2022-12-06T10:47:37.674Z,44.70
2022-12-06T10:52:49.060Z,47.30
2022-12-06T10:58:02.816Z,47.20
2022-12-06T11:03:17.556Z,40.30
2022-12-06T11:08:26.652Z,40.10
2022-12-06T11:13:38.129Z,40.90
2022-12-06T11:18:45.400Z,40.70
2022-12-06T11:23:59.199Z,39.50
2022-12-06T11:29:10.984Z,38.10
2022-12-06T11:34:20.504Z,41.50
2022-12-06T11:39:27.020Z,44.60
2022-12-06T11:44:38.679Z,43.00
2022-12-06T11:49:46.177Z,42.40
2022-12-06T11:54:56.658Z,41.00
2022-12-06T12:00:17.576Z,38.30
2022-12-06T12:05:30.544Z,37.30
2022-12-06T12:10:39.839Z,42.90
2022-12-06T12:15:53.204Z,49.70
2022-12-06T12:21:00.381Z,39.80
2022-12-06T12:26:13.935Z,39.50
2022-12-06T12:31:21.961Z,36.20
2022-12-06T12:36:30.121Z,40.10
2022-12-06T12:41:42.375Z,39.90
2022-12-06T12:46:53.728Z,37.60
2022-12-06T12:52:01.469Z,35.80
2022-12-06T12:57:13.293Z,34.10
2022-12-06T13:02:27.549Z,34.20
2022-12-06T13:07:40.026Z,36.80
2022-12-06T13:12:49.300Z,37.50
2022-12-06T13:18:00.117Z,33.80
2022-12-06T13:23:12.831Z,34.50
2022-12-06T13:28:26.148Z,33.20
2022-12-06T13:33:36.651Z,36.60
2022-12-06T13:38:43.587Z,37.80
2022-12-06T13:43:52.673Z,34.60
2022-12-06T13:48:59.706Z,35.20
2022-12-06T13:54:31.605Z,35.30
2022-12-06T13:59:42.219Z,33.20
2022-12-06T14:04:48.102Z,35.30
2022-12-06T14:09:54.134Z,34.60
2022-12-06T14:15:01.996Z,37.90
2022-12-06T14:20:21.632Z,37.60
2022-12-06T14:25:30.530Z,38.90
2022-12-06T14:30:36.846Z,40.10
2022-12-06T14:35:49.118Z,39.00
2022-12-06T14:41:14.341Z,36.60
2022-12-06T14:46:23.747Z,34.70
2022-12-06T14:51:42.568Z,34.30
2022-12-06T14:56:49.277Z,35.20
2022-12-06T15:01:56.622Z,37.00
2022-12-06T15:07:02.961Z,38.30
2022-12-06T15:12:42.337Z,38.50
2022-12-06T15:17:48.826Z,35.40
2022-12-06T15:22:54.513Z,40.70
2022-12-06T15:28:00.409Z,43.10
2022-12-06T15:33:06.212Z,46.30
2022-12-06T15:38:12.608Z,38.40
2022-12-06T15:43:26.485Z,38.50
2022-12-06T15:48:37.600Z,38.90
2022-12-06T15:53:44.192Z,44.00
2022-12-06T15:58:51.094Z,43.80
2022-12-06T16:03:57.995Z,44.60
2022-12-06T16:09:03.848Z,44.30
2022-12-06T16:14:10.156Z,44.10
2022-12-06T16:19:16.362Z,44.70
2022-12-06T16:24:22.718Z,39.90
2022-12-06T16:29:28.572Z,40.80
2022-12-06T16:34:34.356Z,37.00
2022-12-06T16:39:40.392Z,36.00
2022-12-06T16:44:52.292Z,34.60
2022-12-06T16:49:58.069Z,35.40
2022-12-06T16:55:04.337Z,38.90
2022-12-06T17:00:14.491Z,37.00
2022-12-06T17:05:24.373Z,34.20
2022-12-06T17:10:30.073Z,32.80
2022-12-06T17:15:35.748Z,39.60
2022-12-06T17:20:41.513Z,41.00
2022-12-06T17:25:55.274Z,47.30
2022-12-06T17:31:01.268Z,42.30
2022-12-06T17:36:09.541Z,42.20
2022-12-06T17:41:39.017Z,45.30
2022-12-06T17:46:44.965Z,56.60
2022-12-06T17:51:51.586Z,49.80
2022-12-06T17:56:58.085Z,52.20
2022-12-06T18:02:15.184Z,45.70
2022-12-06T18:07:22.832Z,43.10
2022-12-06T18:12:32.016Z,45.10
2022-12-06T18:17:39.436Z,47.90
2022-12-06T18:22:45.128Z,46.40
2022-12-06T18:27:51.361Z,43.80
2022-12-06T18:33:00.073Z,45.80
2022-12-06T18:38:06.127Z,52.80
2022-12-06T18:43:13.340Z,58.20
2022-12-06T18:48:19.610Z,57.80
2022-12-06T18:53:25.758Z,43.20
2022-12-06T18:58:32.948Z,46.10
2022-12-06T19:03:39.175Z,49.90
2022-12-06T19:08:46.206Z,49.20
2022-12-06T19:13:55.024Z,48.10
2022-12-06T19:19:03.612Z,55.60
2022-12-06T19:24:10.397Z,60.20
2022-12-06T19:29:17.268Z,53.10
2022-12-06T19:34:25.128Z,48.10
2022-12-06T19:39:30.920Z,50.20
2022-12-06T19:44:37.112Z,49.80
2022-12-06T19:49:43.270Z,46.00
2022-12-06T19:54:48.977Z,45.30
2022-12-06T19:59:56.551Z,45.20
2022-12-06T20:05:02.604Z,51.90
2022-12-06T20:10:11.874Z,50.00
2022-12-06T20:15:19.408Z,48.80
2022-12-06T20:20:25.636Z,52.50
2022-12-06T20:25:31.477Z,53.80
2022-12-06T20:30:37.256Z,49.40
2022-12-06T20:35:43.601Z,46.30
2022-12-06T20:40:49.366Z,44.90
2022-12-06T20:45:59.821Z,45.70
2022-12-06T20:51:11.002Z,41.80
2022-12-06T20:56:20.226Z,39.80
2022-12-06T21:01:28.875Z,40.90
2022-12-06T21:06:34.896Z,42.00
2022-12-06T21:11:40.877Z,41.30
2022-12-06T21:16:47.010Z,39.50
2022-12-06T21:21:58.637Z,39.10
2022-12-06T21:27:04.830Z,41.70
2022-12-06T21:32:11.881Z,41.80
2022-12-06T21:37:19.753Z,38.50
2022-12-06T21:42:26.750Z,37.10
2022-12-06T21:47:32.692Z,40.20
2022-12-06T21:52:38.888Z,42.90
2022-12-06T21:57:44.669Z,40.20
2022-12-06T22:02:54.091Z,38.30
2022-12-06T22:08:00.362Z,41.00
2022-12-06T22:13:06.109Z,41.60
2022-12-06T22:18:11.983Z,38.40
2022-12-06T22:23:18.099Z,37.70
2022-12-06T22:28:23.888Z,38.80
2022-12-06T22:33:32.966Z,40.20
2022-12-06T22:38:40.028Z,36.60
2022-12-06T22:43:46.479Z,34.90
2022-12-06T22:48:52.625Z,37.40
2022-12-06T22:54:01.040Z,35.50
2022-12-06T22:59:07.310Z,30.90
2022-12-06T23:04:13.302Z,28.30
2022-12-06T23:09:19.182Z,28.60
2022-12-06T23:14:24.945Z,30.30
2022-12-06T23:19:30.680Z,32.90
2022-12-06T23:24:36.381Z,24.10
2022-12-06T23:29:42.294Z,19.70
2022-12-06T23:34:48.000Z,19.00
2022-12-06T23:39:56.542Z,15.20
2022-12-06T23:45:02.490Z,14.60
2022-12-06T23:50:10.281Z,16.10
2022-12-06T23:55:16.187Z,16.20
